Darstellungsparameter: Aktuell verwendete Einstellungen:
Skalierung der Graphiken ... ?
xyx+y,   Skalierungsfaktor:      Skalierung: Modus: x, Faktor: 1
Darstellungszeitraum ... ?
Vom - - bis: - -   Zeitraum: 15.11.2019 - 17.11.2019
Min/Max/Avg-Anzeige ... ?
Zeige MMA aktuell
Zeige MMA Monat
Zeige MMA alles
Zeige --A aktuell
Zeige --A Monat
Zeige --A alles
Keine MMA-Anzeige
MMA:
Average (ber die Originaldaten)
MMA-Basis: 15.11.2019 - 17.11.2019
Quicknavigation für Darstellung... ?
Tage:      1T, 2T, 3T, 5T -1T -2T -3T -5T +1T +2T +3T +5T
Wochen: 1W, 2W, 3W -1W -2W -3W +1W +2W +3W
Monate: 1M, 3M, 6M -1M -3M -6M +1M +3M +6M
Jahre:    1J, 3J, 5J, 10J -1J -3J -5J -10J +1J +3J +5J +10J
Nutze für die Darstellung ... ?
Originaldaten oder Mittelwerte auf ...
Stundenbasis Tagesbasis Wochenbasis
Monatsbasis Jahresbasis      Datenbasis: Original-Daten
Darstellen als:
Statistik (Auto) Statistik J:M      Darstellung:
Zur Graphik,    zurück zur Übersicht aller Sensoren.
 
Tabellarische Datenbersicht: ?
 
Sensor: Nr:Datum:Temp:Abs-Feuchte:Windchill:Wind:
Aussen-T/F 1 15-11-2019 00:00:00 2.8 C 5.51 g/m*3 2.8 C 0 km/h
2 15-11-2019 00:05:00 2.8 C 5.51 g/m*3 2.8 C 0 km/h
3 15-11-2019 00:10:00 2.8 C 5.51 g/m*3 2.8 C 0 km/h
4 15-11-2019 00:15:00 2.9 C 5.55 g/m*3 2.9 C 0 km/h
5 15-11-2019 00:20:00 2.9 C 5.55 g/m*3 2.9 C 0 km/h
6 15-11-2019 00:25:00 2.9 C 5.49 g/m*3 2.9 C 0 km/h
7 15-11-2019 00:30:00 2.9 C 5.55 g/m*3 2.9 C 0 km/h
8 15-11-2019 00:35:00 3 C 5.59 g/m*3 3 C 0 km/h
9 15-11-2019 00:40:00 3.1 C 5.63 g/m*3 3.1 C 0 km/h
10 15-11-2019 00:45:00 3.1 C 5.63 g/m*3 3.1 C 0 km/h
11 15-11-2019 00:50:00 3.2 C 5.66 g/m*3 3.2 C 0 km/h
12 15-11-2019 00:55:00 3.3 C 5.7 g/m*3 3.3 C 0 km/h
13 15-11-2019 01:00:00 3.3 C 5.7 g/m*3 3.3 C 0 km/h
14 15-11-2019 01:05:00 3.4 C 5.74 g/m*3 3.4 C 0 km/h
15 15-11-2019 01:10:00 3.4 C 5.74 g/m*3 3.4 C 0 km/h
16 15-11-2019 01:15:00 3.4 C 5.74 g/m*3 3.4 C 0 km/h
17 15-11-2019 01:20:00 3.4 C 5.74 g/m*3 3.4 C 0 km/h
18 15-11-2019 01:25:00 3.4 C 5.74 g/m*3 3.4 C 0 km/h
19 15-11-2019 01:30:00 3.4 C 5.68 g/m*3 3.4 C 0 km/h
20 15-11-2019 01:35:00 3.4 C 5.68 g/m*3 3.4 C 0 km/h
21 15-11-2019 01:40:00 3.4 C 5.68 g/m*3 3.4 C 0 km/h
22 15-11-2019 01:45:00 3.5 C 5.72 g/m*3 3.5 C 0 km/h
23 15-11-2019 01:50:00 3.6 C 5.82 g/m*3 3.6 C 0 km/h
24 15-11-2019 01:55:00 3.6 C 5.82 g/m*3 3.6 C 0 km/h
25 15-11-2019 02:00:00 3.6 C 5.76 g/m*3 3.6 C 0 km/h
Sensor: Nr:Datum:Temp:Abs-Feuchte:Windchill:Wind:
Aussen-T/F 26 15-11-2019 02:05:00 3.6 C 5.76 g/m*3 3.6 C 0 km/h
27 15-11-2019 02:10:00 3.6 C 5.76 g/m*3 3.6 C 0 km/h
28 15-11-2019 02:15:00 3.5 C 5.72 g/m*3 3.5 C 0 km/h
29 15-11-2019 02:20:00 3.4 C 5.68 g/m*3 3.4 C 0 km/h
30 15-11-2019 02:25:00 3.4 C 5.68 g/m*3 3.4 C 0 km/h
31 15-11-2019 02:30:00 3.3 C 5.64 g/m*3 3.3 C 0 km/h
32 15-11-2019 02:35:00 3.3 C 5.64 g/m*3 3.3 C 0 km/h
33 15-11-2019 02:40:00 3.3 C 5.64 g/m*3 3.3 C 0 km/h
34 15-11-2019 02:45:00 3.3 C 5.64 g/m*3 3.3 C 0 km/h
35 15-11-2019 02:50:00 3.4 C 5.68 g/m*3 3.4 C 1.6 km/h
36 15-11-2019 02:55:00 3.5 C 5.72 g/m*3 3.5 C 0 km/h
37 15-11-2019 03:00:00 3.5 C 5.72 g/m*3 3.5 C 0 km/h
38 15-11-2019 03:05:00 3.6 C 5.76 g/m*3 3.6 C 0 km/h
39 15-11-2019 03:10:00 3.6 C 5.76 g/m*3 3.6 C 0 km/h
40 15-11-2019 03:15:00 3.6 C 5.76 g/m*3 3.6 C 0 km/h
41 15-11-2019 03:20:00 3.5 C 5.66 g/m*3 3.5 C 1.6 km/h
42 15-11-2019 03:25:00 3.5 C 5.66 g/m*3 3.5 C 0 km/h
43 15-11-2019 03:30:00 3.4 C 5.62 g/m*3 3.4 C 0 km/h
44 15-11-2019 03:35:00 3.3 C 5.58 g/m*3 3.3 C 1.6 km/h
45 15-11-2019 03:40:00 3.3 C 5.52 g/m*3 3.3 C 0 km/h
46 15-11-2019 03:45:00 3.2 C 5.54 g/m*3 3.2 C 0 km/h
47 15-11-2019 03:50:00 3.2 C 5.54 g/m*3 3.2 C 1.6 km/h
48 15-11-2019 03:55:00 3.1 C 5.51 g/m*3 3.1 C 0 km/h
49 15-11-2019 04:00:00 3.1 C 5.51 g/m*3 3.1 C 3.2 km/h
50 15-11-2019 04:05:00 3.1 C 5.51 g/m*3 3.1 C 1.6 km/h
Sensor: Nr:Datum:Temp:Abs-Feuchte:Windchill:Wind:
Aussen-T/F 51 15-11-2019 04:10:00 3.1 C 5.51 g/m*3 3.1 C 0 km/h
52 15-11-2019 04:15:00 3.1 C 5.51 g/m*3 3.1 C 1.6 km/h
53 15-11-2019 04:20:00 3.1 C 5.51 g/m*3 3.1 C 3.2 km/h
54 15-11-2019 04:25:00 3.3 C 5.58 g/m*3 3.3 C 4.8 km/h
55 15-11-2019 04:30:00 3.4 C 5.62 g/m*3 3.4 C 4.8 km/h
56 15-11-2019 04:35:00 3.5 C 5.66 g/m*3 3.5 C 1.6 km/h
57 15-11-2019 04:40:00 3.6 C 5.63 g/m*3 3.6 C 3.2 km/h
58 15-11-2019 04:45:00 3.7 C 5.67 g/m*3 3.7 C 0 km/h
59 15-11-2019 04:50:00 3.7 C 5.67 g/m*3 3.7 C 0 km/h
60 15-11-2019 04:55:00 3.7 C 5.67 g/m*3 3.7 C 4.8 km/h
61 15-11-2019 05:00:00 3.7 C 5.61 g/m*3 3.7 C 0 km/h
62 15-11-2019 05:05:00 3.7 C 5.67 g/m*3 3.7 C 0 km/h
63 15-11-2019 05:10:00 3.7 C 5.67 g/m*3 3.7 C 0 km/h
64 15-11-2019 05:15:00 3.6 C 5.57 g/m*3 3.6 C 0 km/h
65 15-11-2019 05:20:00 3.6 C 5.57 g/m*3 3.6 C 1.6 km/h
66 15-11-2019 05:25:00 3.6 C 5.57 g/m*3 3.6 C 1.6 km/h
67 15-11-2019 05:30:00 3.5 C 5.53 g/m*3 3.5 C 1.6 km/h
68 15-11-2019 05:35:00 3.5 C 5.53 g/m*3 3.5 C 0 km/h
69 15-11-2019 05:40:00 3.4 C 5.5 g/m*3 3.4 C 0 km/h
70 15-11-2019 05:45:00 3.3 C 5.46 g/m*3 3.3 C 0 km/h
71 15-11-2019 05:50:00 3.4 C 5.5 g/m*3 3.4 C 1.6 km/h
72 15-11-2019 05:55:00 3.4 C 5.5 g/m*3 3.4 C 3.2 km/h
73 15-11-2019 06:00:00 3.6 C 5.57 g/m*3 3.6 C 3.2 km/h
74 15-11-2019 06:05:00 3.6 C 5.57 g/m*3 3.6 C 3.2 km/h
75 15-11-2019 06:10:00 3.7 C 5.55 g/m*3 3.7 C 1.6 km/h
Sensor: Nr:Datum:Temp:Abs-Feuchte:Windchill:Wind:
Aussen-T/F 76 15-11-2019 06:15:00 3.8 C 5.52 g/m*3 3.8 C 4.8 km/h
77 15-11-2019 06:20:00 3.9 C 5.56 g/m*3 3.9 C 1.6 km/h
78 15-11-2019 06:25:00 3.9 C 5.56 g/m*3 3.9 C 1.6 km/h
79 15-11-2019 06:30:00 3.9 C 5.49 g/m*3 3.9 C 4.8 km/h
80 15-11-2019 06:35:00 4 C 5.53 g/m*3 4 C 1.6 km/h
81 15-11-2019 06:40:00 4 C 5.53 g/m*3 1.93 C 8.1 km/h
82 15-11-2019 06:45:00 4.1 C 5.57 g/m*3 1 C 12.9 km/h
83 15-11-2019 06:50:00 4.1 C 5.57 g/m*3 2.05 C 8.1 km/h
84 15-11-2019 06:55:00 4.1 C 5.57 g/m*3 4.1 C 0 km/h
85 15-11-2019 07:00:00 4.1 C 5.57 g/m*3 4.1 C 0 km/h
86 15-11-2019 07:05:00 4 C 5.53 g/m*3 4 C 1.6 km/h
87 15-11-2019 07:10:00 3.9 C 5.49 g/m*3 3.9 C 1.6 km/h
88 15-11-2019 07:15:00 3.9 C 5.49 g/m*3 3.9 C 1.6 km/h
89 15-11-2019 07:20:00 3.9 C 5.49 g/m*3 2.32 C 6.4 km/h
90 15-11-2019 07:25:00 3.9 C 5.49 g/m*3 2.32 C 6.4 km/h
91 15-11-2019 07:30:00 3.9 C 5.56 g/m*3 3.9 C 0 km/h
92 15-11-2019 07:35:00 3.9 C 5.56 g/m*3 3.9 C 1.6 km/h
93 15-11-2019 07:40:00 3.8 C 5.52 g/m*3 3.8 C 0 km/h
94 15-11-2019 07:45:00 3.8 C 5.52 g/m*3 3.8 C 0 km/h
95 15-11-2019 07:50:00 3.7 C 5.48 g/m*3 2.09 C 6.4 km/h
96 15-11-2019 07:55:00 3.8 C 5.52 g/m*3 2.21 C 6.4 km/h
97 15-11-2019 08:00:00 3.9 C 5.56 g/m*3 3.9 C 1.6 km/h
98 15-11-2019 08:05:00 3.9 C 5.56 g/m*3 3.9 C 1.6 km/h
99 15-11-2019 08:10:00 4.1 C 5.57 g/m*3 2.05 C 8.1 km/h
100 15-11-2019 08:15:00 4.1 C 5.57 g/m*3 2.05 C 8.1 km/h
Sensor: Nr:Datum:Temp:Abs-Feuchte:Windchill:Wind:
Aussen-T/F 101 15-11-2019 08:20:00 4.2 C 5.61 g/m*3 4.2 C 0 km/h
102 15-11-2019 08:25:00 4.1 C 5.57 g/m*3 4.1 C 1.6 km/h
103 15-11-2019 08:30:00 4.1 C 5.57 g/m*3 4.1 C 1.6 km/h
104 15-11-2019 08:35:00 4.1 C 5.57 g/m*3 4.1 C 0 km/h
105 15-11-2019 08:40:00 4.1 C 5.63 g/m*3 4.1 C 0 km/h
106 15-11-2019 08:45:00 4.1 C 5.63 g/m*3 4.1 C 0 km/h
107 15-11-2019 08:50:00 4 C 5.59 g/m*3 4 C 0 km/h
108 15-11-2019 08:55:00 4 C 5.59 g/m*3 4 C 0 km/h
109 15-11-2019 09:00:00 3.9 C 5.56 g/m*3 3.9 C 1.6 km/h
110 15-11-2019 09:05:00 3.9 C 5.56 g/m*3 3.9 C 0 km/h
111 15-11-2019 09:10:00 3.9 C 5.62 g/m*3 3.9 C 0 km/h
112 15-11-2019 09:15:00 4 C 5.66 g/m*3 4 C 0 km/h
113 15-11-2019 09:20:00 4 C 5.66 g/m*3 4 C 0 km/h
114 15-11-2019 09:25:00 4.1 C 5.7 g/m*3 4.1 C 0 km/h
115 15-11-2019 09:30:00 4.2 C 5.67 g/m*3 4.2 C 4.8 km/h
116 15-11-2019 09:35:00 4.4 C 5.75 g/m*3 4.4 C 3.2 km/h
117 15-11-2019 09:40:00 4.6 C 5.76 g/m*3 4.6 C 1.6 km/h
118 15-11-2019 09:45:00 4.7 C 5.73 g/m*3 4.7 C 0 km/h
119 15-11-2019 09:50:00 4.8 C 5.7 g/m*3 4.8 C 1.6 km/h
120 15-11-2019 09:55:00 4.8 C 5.7 g/m*3 2.87 C 8.1 km/h
121 15-11-2019 10:00:00 4.9 C 5.74 g/m*3 4.9 C 0 km/h
122 15-11-2019 10:05:00 5.1 C 5.88 g/m*3 5.1 C 0 km/h
123 15-11-2019 10:10:00 5.2 C 5.85 g/m*3 5.2 C 3.2 km/h
124 15-11-2019 10:15:00 5.2 C 5.78 g/m*3 5.2 C 0 km/h
125 15-11-2019 10:20:00 5.3 C 5.82 g/m*3 5.3 C 1.6 km/h
Sensor: Nr:Datum:Temp:Abs-Feuchte:Windchill:Wind:
Aussen-T/F 126 15-11-2019 10:25:00 5.4 C 5.79 g/m*3 4.06 C 6.4 km/h
127 15-11-2019 10:30:00 5.4 C 5.79 g/m*3 5.4 C 4.8 km/h
128 15-11-2019 10:35:00 5.5 C 5.83 g/m*3 5.5 C 3.2 km/h
129 15-11-2019 10:40:00 5.6 C 5.87 g/m*3 5.6 C 4.8 km/h
130 15-11-2019 10:45:00 5.6 C 5.8 g/m*3 5.6 C 4.8 km/h
131 15-11-2019 10:50:00 5.7 C 5.84 g/m*3 4.4 C 6.4 km/h
132 15-11-2019 10:55:00 5.7 C 5.84 g/m*3 5.7 C 3.2 km/h
133 15-11-2019 11:00:00 5.8 C 5.95 g/m*3 5.8 C 1.6 km/h
134 15-11-2019 11:05:00 5.8 C 5.87 g/m*3 4.52 C 6.4 km/h
135 15-11-2019 11:10:00 5.8 C 5.8 g/m*3 4.05 C 8.1 km/h
136 15-11-2019 11:15:00 5.8 C 5.8 g/m*3 3.68 C 9.7 km/h
137 15-11-2019 11:20:00 5.8 C 5.87 g/m*3 4.52 C 6.4 km/h
138 15-11-2019 11:25:00 5.8 C 5.87 g/m*3 5.8 C 4.8 km/h
139 15-11-2019 11:30:00 5.8 C 5.87 g/m*3 5.8 C 1.6 km/h
140 15-11-2019 11:35:00 5.8 C 5.87 g/m*3 5.8 C 1.6 km/h
141 15-11-2019 11:40:00 5.8 C 5.87 g/m*3 5.8 C 1.6 km/h
142 15-11-2019 11:45:00 5.9 C 5.91 g/m*3 5.9 C 1.6 km/h
143 15-11-2019 11:50:00 6.1 C 5.92 g/m*3 4.4 C 8.1 km/h
144 15-11-2019 11:55:00 6.2 C 5.96 g/m*3 4.15 C 9.7 km/h
145 15-11-2019 12:00:00 6.3 C 6 g/m*3 4.27 C 9.7 km/h
146 15-11-2019 12:05:00 6.4 C 6.11 g/m*3 6.4 C 1.6 km/h
147 15-11-2019 12:10:00 6.4 C 5.96 g/m*3 5.21 C 6.4 km/h
148 15-11-2019 12:15:00 6.5 C 6 g/m*3 4.87 C 8.1 km/h
149 15-11-2019 12:20:00 6.5 C 6 g/m*3 6.5 C 1.6 km/h
150 15-11-2019 12:25:00 6.6 C 6.11 g/m*3 6.6 C 1.6 km/h
Sensor: Nr:Datum:Temp:Abs-Feuchte:Windchill:Wind:
Aussen-T/F 151 15-11-2019 12:30:00 6.6 C 6.04 g/m*3 6.6 C 1.6 km/h
152 15-11-2019 12:35:00 6.6 C 6.11 g/m*3 6.6 C 3.2 km/h
153 15-11-2019 12:40:00 6.6 C 6.11 g/m*3 6.6 C 0 km/h
154 15-11-2019 12:45:00 6.7 C 6.15 g/m*3 6.7 C 1.6 km/h
155 15-11-2019 12:50:00 6.7 C 6.23 g/m*3 6.7 C 3.2 km/h
156 15-11-2019 12:55:00 6.7 C 6.15 g/m*3 6.7 C 1.6 km/h
157 15-11-2019 13:00:00 6.7 C 6.15 g/m*3 6.7 C 1.6 km/h
158 15-11-2019 13:05:00 6.8 C 6.19 g/m*3 6.8 C 1.6 km/h
159 15-11-2019 13:10:00 6.8 C 6.19 g/m*3 6.8 C 1.6 km/h
160 15-11-2019 13:15:00 6.9 C 6.24 g/m*3 6.9 C 0 km/h
161 15-11-2019 13:20:00 6.9 C 6.16 g/m*3 6.9 C 3.2 km/h
162 15-11-2019 13:25:00 7 C 6.35 g/m*3 7 C 1.6 km/h
163 15-11-2019 13:30:00 7.1 C 6.32 g/m*3 7.1 C 0 km/h
164 15-11-2019 13:35:00 7.2 C 6.28 g/m*3 7.2 C 1.6 km/h
165 15-11-2019 13:40:00 7.2 C 6.28 g/m*3 7.2 C 0 km/h
166 15-11-2019 13:45:00 7.3 C 6.32 g/m*3 7.3 C 1.6 km/h
167 15-11-2019 13:50:00 7.3 C 6.32 g/m*3 7.3 C 0 km/h
168 15-11-2019 13:55:00 7.4 C 6.36 g/m*3 7.4 C 0 km/h
169 15-11-2019 14:00:00 7.4 C 6.44 g/m*3 7.4 C 1.6 km/h
170 15-11-2019 14:05:00 7.5 C 6.32 g/m*3 7.5 C 1.6 km/h
171 15-11-2019 14:10:00 7.6 C 6.36 g/m*3 7.6 C 0 km/h
172 15-11-2019 14:15:00 7.6 C 6.44 g/m*3 7.6 C 3.2 km/h
173 15-11-2019 14:20:00 7.7 C 6.41 g/m*3 7.7 C 0 km/h
174 15-11-2019 14:25:00 7.7 C 6.41 g/m*3 7.7 C 0 km/h
175 15-11-2019 14:30:00 7.7 C 6.41 g/m*3 7.7 C 1.6 km/h
Sensor: Nr:Datum:Temp:Abs-Feuchte:Windchill:Wind:
Aussen-T/F 176 15-11-2019 14:35:00 7.8 C 6.45 g/m*3 7.8 C 4.8 km/h
177 15-11-2019 14:40:00 7.8 C 6.45 g/m*3 7.8 C 3.2 km/h
178 15-11-2019 14:45:00 7.8 C 6.45 g/m*3 7.8 C 3.2 km/h
179 15-11-2019 14:50:00 7.8 C 6.45 g/m*3 6.83 C 6.4 km/h
180 15-11-2019 14:55:00 7.8 C 6.45 g/m*3 7.8 C 0 km/h
181 15-11-2019 15:00:00 7.9 C 6.49 g/m*3 7.9 C 0 km/h
182 15-11-2019 15:05:00 7.9 C 6.41 g/m*3 7.9 C 4.8 km/h
183 15-11-2019 15:10:00 7.9 C 6.41 g/m*3 7.9 C 3.2 km/h
184 15-11-2019 15:15:00 7.9 C 6.41 g/m*3 7.9 C 1.6 km/h
185 15-11-2019 15:20:00 7.9 C 6.41 g/m*3 7.9 C 4.8 km/h
186 15-11-2019 15:25:00 7.9 C 6.41 g/m*3 7.9 C 1.6 km/h
187 15-11-2019 15:30:00 7.9 C 6.41 g/m*3 7.9 C 0 km/h
188 15-11-2019 15:35:00 7.9 C 6.41 g/m*3 6.94 C 6.4 km/h
189 15-11-2019 15:40:00 7.9 C 6.49 g/m*3 7.9 C 4.8 km/h
190 15-11-2019 15:45:00 7.8 C 6.45 g/m*3 7.8 C 0 km/h
191 15-11-2019 15:50:00 7.8 C 6.53 g/m*3 7.8 C 0 km/h
192 15-11-2019 15:55:00 7.8 C 6.61 g/m*3 7.8 C 0 km/h
193 15-11-2019 16:00:00 7.7 C 6.57 g/m*3 7.7 C 0 km/h
194 15-11-2019 16:05:00 7.6 C 6.61 g/m*3 7.6 C 1.6 km/h
195 15-11-2019 16:10:00 7.5 C 6.48 g/m*3 7.5 C 0 km/h
196 15-11-2019 16:15:00 7.3 C 6.48 g/m*3 7.3 C 0 km/h
197 15-11-2019 16:20:00 7.1 C 6.4 g/m*3 7.1 C 0 km/h
198 15-11-2019 16:25:00 6.8 C 6.27 g/m*3 6.8 C 0 km/h
199 15-11-2019 16:30:00 6.5 C 6.15 g/m*3 6.5 C 0 km/h
200 15-11-2019 16:35:00 6.2 C 6.1 g/m*3 6.2 C 0 km/h
Sensor: Nr:Datum:Temp:Abs-Feuchte:Windchill:Wind:
Aussen-T/F 201 15-11-2019 16:40:00 5.8 C 6.02 g/m*3 5.8 C 0 km/h
202 15-11-2019 16:45:00 5.6 C 5.94 g/m*3 5.6 C 0 km/h
203 15-11-2019 16:50:00 5.3 C 5.89 g/m*3 5.3 C 0 km/h
204 15-11-2019 16:55:00 5.1 C 5.81 g/m*3 5.1 C 0 km/h
205 15-11-2019 17:00:00 5 C 5.84 g/m*3 5 C 0 km/h
206 15-11-2019 17:05:00 4.9 C 5.87 g/m*3 4.9 C 0 km/h
207 15-11-2019 17:10:00 4.8 C 5.9 g/m*3 4.8 C 0 km/h
208 15-11-2019 17:15:00 4.8 C 5.9 g/m*3 4.8 C 0 km/h
209 15-11-2019 17:20:00 4.8 C 5.97 g/m*3 4.8 C 0 km/h
210 15-11-2019 17:25:00 4.7 C 5.93 g/m*3 4.7 C 0 km/h
211 15-11-2019 17:30:00 4.7 C 5.93 g/m*3 4.7 C 0 km/h
212 15-11-2019 17:35:00 4.7 C 5.93 g/m*3 4.7 C 0 km/h
213 15-11-2019 17:40:00 4.7 C 6 g/m*3 4.7 C 0 km/h
214 15-11-2019 17:45:00 4.7 C 6 g/m*3 4.7 C 0 km/h
215 15-11-2019 17:50:00 4.7 C 6 g/m*3 4.7 C 0 km/h
216 15-11-2019 17:55:00 4.6 C 5.96 g/m*3 4.6 C 0 km/h
217 15-11-2019 18:00:00 4.6 C 5.96 g/m*3 4.6 C 0 km/h
218 15-11-2019 18:05:00 4.6 C 5.96 g/m*3 4.6 C 0 km/h
219 15-11-2019 18:10:00 4.6 C 5.96 g/m*3 4.6 C 0 km/h
220 15-11-2019 18:15:00 4.6 C 5.96 g/m*3 4.6 C 0 km/h
221 15-11-2019 18:20:00 4.6 C 6.02 g/m*3 4.6 C 3.2 km/h
222 15-11-2019 18:25:00 4.6 C 6.02 g/m*3 4.6 C 0 km/h
223 15-11-2019 18:30:00 4.6 C 6.02 g/m*3 4.6 C 0 km/h
224 15-11-2019 18:35:00 4.6 C 6.02 g/m*3 4.6 C 0 km/h
225 15-11-2019 18:40:00 4.7 C 6.06 g/m*3 4.7 C 0 km/h
Sensor: Nr:Datum:Temp:Abs-Feuchte:Windchill:Wind:
Aussen-T/F 226 15-11-2019 18:45:00 4.7 C 6.06 g/m*3 4.7 C 0 km/h
227 15-11-2019 18:50:00 4.7 C 6.06 g/m*3 4.7 C 0 km/h
228 15-11-2019 18:55:00 4.7 C 6.06 g/m*3 4.7 C 0 km/h
229 15-11-2019 19:00:00 4.7 C 6.06 g/m*3 4.7 C 0 km/h
230 15-11-2019 19:05:00 4.6 C 6.02 g/m*3 4.6 C 0 km/h
231 15-11-2019 19:10:00 4.6 C 6.02 g/m*3 4.6 C 0 km/h
232 15-11-2019 19:15:00 4.6 C 6.02 g/m*3 4.6 C 0 km/h
233 15-11-2019 19:20:00 4.6 C 6.02 g/m*3 4.6 C 0 km/h
234 15-11-2019 19:25:00 4.5 C 5.98 g/m*3 4.5 C 0 km/h
235 15-11-2019 19:30:00 4.5 C 6.05 g/m*3 4.5 C 0 km/h
236 15-11-2019 19:35:00 4.5 C 6.05 g/m*3 4.5 C 0 km/h
237 15-11-2019 19:40:00 4.4 C 6.01 g/m*3 4.4 C 0 km/h
238 15-11-2019 19:45:00 4.4 C 6.01 g/m*3 4.4 C 0 km/h
239 15-11-2019 19:50:00 4.4 C 6.01 g/m*3 4.4 C 0 km/h
240 15-11-2019 19:55:00 4.3 C 5.97 g/m*3 4.3 C 0 km/h
241 15-11-2019 20:00:00 4.3 C 5.97 g/m*3 4.3 C 0 km/h
242 15-11-2019 20:05:00 4.3 C 5.97 g/m*3 4.3 C 0 km/h
243 15-11-2019 20:10:00 4.3 C 5.97 g/m*3 4.3 C 0 km/h
244 15-11-2019 20:15:00 4.3 C 5.97 g/m*3 4.3 C 0 km/h
245 15-11-2019 20:20:00 4.3 C 5.97 g/m*3 4.3 C 0 km/h
246 15-11-2019 20:25:00 4.2 C 5.93 g/m*3 4.2 C 0 km/h
247 15-11-2019 20:30:00 4.2 C 5.93 g/m*3 4.2 C 0 km/h
248 15-11-2019 20:35:00 4.2 C 5.93 g/m*3 4.2 C 0 km/h
249 15-11-2019 20:40:00 4.1 C 5.89 g/m*3 4.1 C 0 km/h
250 15-11-2019 20:45:00 4.1 C 5.89 g/m*3 4.1 C 0 km/h
Sensor: Nr:Datum:Temp:Abs-Feuchte:Windchill:Wind:
Aussen-T/F 251 15-11-2019 20:50:00 4.1 C 5.89 g/m*3 4.1 C 0 km/h
252 15-11-2019 20:55:00 4 C 5.91 g/m*3 4 C 0 km/h
253 15-11-2019 21:00:00 4.1 C 5.95 g/m*3 4.1 C 0 km/h
254 15-11-2019 21:05:00 4.1 C 5.95 g/m*3 4.1 C 0 km/h
255 15-11-2019 21:10:00 4.1 C 5.95 g/m*3 4.1 C 0 km/h
256 15-11-2019 21:15:00 4.1 C 5.95 g/m*3 4.1 C 0 km/h
257 15-11-2019 21:20:00 4.1 C 5.95 g/m*3 4.1 C 0 km/h
258 15-11-2019 21:25:00 4.1 C 5.95 g/m*3 4.1 C 0 km/h
259 15-11-2019 21:30:00 4.1 C 5.95 g/m*3 4.1 C 0 km/h
260 15-11-2019 21:35:00 4.1 C 5.95 g/m*3 4.1 C 0 km/h
261 15-11-2019 21:40:00 4 C 5.91 g/m*3 4 C 0 km/h
262 15-11-2019 21:45:00 4 C 5.91 g/m*3 4 C 0 km/h
263 15-11-2019 21:50:00 3.9 C 5.87 g/m*3 3.9 C 0 km/h
264 15-11-2019 21:55:00 3.9 C 5.87 g/m*3 3.9 C 0 km/h
265 15-11-2019 22:00:00 3.9 C 5.87 g/m*3 3.9 C 0 km/h
266 15-11-2019 22:05:00 3.8 C 5.83 g/m*3 3.8 C 0 km/h
267 15-11-2019 22:10:00 3.8 C 5.83 g/m*3 3.8 C 0 km/h
268 15-11-2019 22:15:00 3.8 C 5.83 g/m*3 3.8 C 0 km/h
269 15-11-2019 22:20:00 3.7 C 5.8 g/m*3 3.7 C 0 km/h
270 15-11-2019 22:25:00 3.7 C 5.8 g/m*3 3.7 C 0 km/h
271 15-11-2019 22:30:00 3.7 C 5.8 g/m*3 3.7 C 0 km/h
272 15-11-2019 22:35:00 3.7 C 5.8 g/m*3 3.7 C 0 km/h
273 15-11-2019 22:40:00 3.6 C 5.76 g/m*3 3.6 C 0 km/h
274 15-11-2019 22:45:00 3.6 C 5.76 g/m*3 3.6 C 0 km/h
275 15-11-2019 22:50:00 3.6 C 5.82 g/m*3 3.6 C 0 km/h
Sensor: Nr:Datum:Temp:Abs-Feuchte:Windchill:Wind:
Aussen-T/F 276 15-11-2019 22:55:00 3.6 C 5.82 g/m*3 3.6 C 0 km/h
277 15-11-2019 23:00:00 3.6 C 5.82 g/m*3 3.6 C 0 km/h
278 15-11-2019 23:05:00 3.5 C 5.72 g/m*3 3.5 C 0 km/h
279 15-11-2019 23:10:00 3.5 C 5.78 g/m*3 3.5 C 0 km/h
280 15-11-2019 23:15:00 3.5 C 5.78 g/m*3 3.5 C 0 km/h
281 15-11-2019 23:20:00 3.5 C 5.78 g/m*3 3.5 C 0 km/h
282 15-11-2019 23:25:00 3.6 C 5.82 g/m*3 3.6 C 0 km/h
283 15-11-2019 23:30:00 3.5 C 5.78 g/m*3 3.5 C 0 km/h
284 15-11-2019 23:35:00 3.5 C 5.78 g/m*3 3.5 C 0 km/h
285 15-11-2019 23:40:00 3.5 C 5.78 g/m*3 3.5 C 0 km/h
286 15-11-2019 23:45:00 3.4 C 5.74 g/m*3 3.4 C 0 km/h
287 15-11-2019 23:50:00 3.4 C 5.74 g/m*3 3.4 C 0 km/h
288 15-11-2019 23:55:00 3.4 C 5.74 g/m*3 3.4 C 0 km/h
289 16-11-2019 00:00:00 3.4 C 5.74 g/m*3 3.4 C 0 km/h
290 16-11-2019 00:05:00 3.3 C 5.7 g/m*3 3.3 C 0 km/h
291 16-11-2019 00:10:00 3.3 C 5.7 g/m*3 3.3 C 0 km/h
292 16-11-2019 00:15:00 3.3 C 5.7 g/m*3 3.3 C 0 km/h
293 16-11-2019 00:20:00 3.3 C 5.7 g/m*3 3.3 C 0 km/h
294 16-11-2019 00:25:00 3.3 C 5.7 g/m*3 3.3 C 0 km/h
295 16-11-2019 00:30:00 3.3 C 5.7 g/m*3 3.3 C 0 km/h
296 16-11-2019 00:35:00 3.3 C 5.7 g/m*3 3.3 C 0 km/h
297 16-11-2019 00:40:00 3.3 C 5.7 g/m*3 3.3 C 0 km/h
298 16-11-2019 00:45:00 3.3 C 5.7 g/m*3 3.3 C 0 km/h
299 16-11-2019 00:50:00 3.3 C 5.76 g/m*3 3.3 C 0 km/h
300 16-11-2019 00:55:00 3.3 C 5.7 g/m*3 3.3 C 0 km/h
Sensor: Nr:Datum:Temp:Abs-Feuchte:Windchill:Wind:
Aussen-T/F 301 16-11-2019 01:00:00 3.3 C 5.76 g/m*3 3.3 C 0 km/h
302 16-11-2019 01:05:00 3.3 C 5.76 g/m*3 3.3 C 0 km/h
303 16-11-2019 01:10:00 3.3 C 5.76 g/m*3 3.3 C 0 km/h
304 16-11-2019 01:15:00 3.2 C 5.72 g/m*3 3.2 C 0 km/h
305 16-11-2019 01:20:00 3.2 C 5.72 g/m*3 3.2 C 0 km/h
306 16-11-2019 01:25:00 3.2 C 5.72 g/m*3 3.2 C 0 km/h
307 16-11-2019 01:30:00 3.2 C 5.72 g/m*3 3.2 C 0 km/h
308 16-11-2019 01:35:00 3.2 C 5.72 g/m*3 3.2 C 0 km/h
309 16-11-2019 01:40:00 3.2 C 5.66 g/m*3 3.2 C 0 km/h
310 16-11-2019 01:45:00 3.2 C 5.72 g/m*3 3.2 C 1.6 km/h
311 16-11-2019 01:50:00 3.2 C 5.72 g/m*3 3.2 C 0 km/h
312 16-11-2019 01:55:00 3.2 C 5.72 g/m*3 3.2 C 0 km/h
313 16-11-2019 02:00:00 3.2 C 5.72 g/m*3 3.2 C 0 km/h
314 16-11-2019 02:05:00 3.2 C 5.72 g/m*3 3.2 C 0 km/h
315 16-11-2019 02:10:00 3.2 C 5.72 g/m*3 3.2 C 0 km/h
316 16-11-2019 02:15:00 3.2 C 5.72 g/m*3 3.2 C 0 km/h
317 16-11-2019 02:20:00 3.2 C 5.72 g/m*3 3.2 C 1.6 km/h
318 16-11-2019 02:25:00 3.2 C 5.72 g/m*3 3.2 C 0 km/h
319 16-11-2019 02:30:00 3.2 C 5.72 g/m*3 3.2 C 0 km/h
320 16-11-2019 02:35:00 3.1 C 5.69 g/m*3 3.1 C 0 km/h
321 16-11-2019 02:40:00 3.1 C 5.69 g/m*3 3.1 C 0 km/h
322 16-11-2019 02:45:00 3 C 5.59 g/m*3 3 C 0 km/h
323 16-11-2019 02:50:00 2.9 C 5.61 g/m*3 2.9 C 0 km/h
324 16-11-2019 02:55:00 2.9 C 5.61 g/m*3 2.9 C 0 km/h
325 16-11-2019 03:00:00 2.9 C 5.61 g/m*3 2.9 C 0 km/h
Sensor: Nr:Datum:Temp:Abs-Feuchte:Windchill:Wind:
Aussen-T/F 326 16-11-2019 03:05:00 2.9 C 5.61 g/m*3 2.9 C 0 km/h
327 16-11-2019 03:10:00 2.8 C 5.57 g/m*3 2.8 C 0 km/h
328 16-11-2019 03:15:00 2.8 C 5.57 g/m*3 2.8 C 0 km/h
329 16-11-2019 03:20:00 2.8 C 5.57 g/m*3 2.8 C 0 km/h
330 16-11-2019 03:25:00 2.7 C 5.54 g/m*3 2.7 C 0 km/h
331 16-11-2019 03:30:00 2.7 C 5.54 g/m*3 2.7 C 0 km/h
332 16-11-2019 03:35:00 2.6 C 5.5 g/m*3 2.6 C 0 km/h
333 16-11-2019 03:40:00 2.5 C 5.4 g/m*3 2.5 C 0 km/h
334 16-11-2019 03:45:00 2.3 C 5.33 g/m*3 2.3 C 0 km/h
335 16-11-2019 03:50:00 2.3 C 5.39 g/m*3 2.3 C 0 km/h
336 16-11-2019 03:55:00 2.3 C 5.39 g/m*3 2.3 C 0 km/h
337 16-11-2019 04:00:00 2.3 C 5.39 g/m*3 2.3 C 0 km/h
338 16-11-2019 04:05:00 2.3 C 5.39 g/m*3 2.3 C 0 km/h
339 16-11-2019 04:10:00 2.2 C 5.35 g/m*3 2.2 C 0 km/h
340 16-11-2019 04:15:00 2.2 C 5.35 g/m*3 2.2 C 0 km/h
341 16-11-2019 04:20:00 2.1 C 5.31 g/m*3 2.1 C 0 km/h
342 16-11-2019 04:25:00 2 C 5.28 g/m*3 2 C 0 km/h
343 16-11-2019 04:30:00 1.8 C 5.15 g/m*3 1.8 C 0 km/h
344 16-11-2019 04:35:00 1.7 C 5.12 g/m*3 1.7 C 0 km/h
345 16-11-2019 04:40:00 1.6 C 5.08 g/m*3 1.6 C 0 km/h
346 16-11-2019 04:45:00 1.4 C 5.01 g/m*3 1.4 C 0 km/h
347 16-11-2019 04:50:00 1.3 C 4.98 g/m*3 1.3 C 0 km/h
348 16-11-2019 04:55:00 1.3 C 5.03 g/m*3 1.3 C 0 km/h
349 16-11-2019 05:00:00 1.2 C 5 g/m*3 1.2 C 0 km/h
350 16-11-2019 05:05:00 1.2 C 5 g/m*3 1.2 C 0 km/h
Sensor: Nr:Datum:Temp:Abs-Feuchte:Windchill:Wind:
Aussen-T/F 351 16-11-2019 05:10:00 1.1 C 4.96 g/m*3 1.1 C 0 km/h
352 16-11-2019 05:15:00 1 C 4.93 g/m*3 1 C 0 km/h
353 16-11-2019 05:20:00 0.9 C 4.9 g/m*3 0.9 C 0 km/h
354 16-11-2019 05:25:00 0.8 C 4.86 g/m*3 0.8 C 0 km/h
355 16-11-2019 05:30:00 0.8 C 4.86 g/m*3 0.8 C 0 km/h
356 16-11-2019 05:35:00 0.7 C 4.83 g/m*3 0.7 C 0 km/h
357 16-11-2019 05:40:00 0.7 C 4.83 g/m*3 0.7 C 0 km/h
358 16-11-2019 05:45:00 0.7 C 4.83 g/m*3 0.7 C 0 km/h
359 16-11-2019 05:50:00 0.6 C 4.8 g/m*3 0.6 C 0 km/h
360 16-11-2019 05:55:00 0.5 C 4.76 g/m*3 0.5 C 0 km/h
361 16-11-2019 06:00:00 0.4 C 4.73 g/m*3 0.4 C 0 km/h
362 16-11-2019 06:05:00 0.3 C 4.7 g/m*3 0.3 C 0 km/h
363 16-11-2019 06:10:00 0.3 C 4.7 g/m*3 0.3 C 0 km/h
364 16-11-2019 06:15:00 0.2 C 4.67 g/m*3 0.2 C 0 km/h
365 16-11-2019 06:20:00 0.2 C 4.67 g/m*3 0.2 C 0 km/h
366 16-11-2019 06:25:00 0.1 C 4.63 g/m*3 0.1 C 0 km/h
367 16-11-2019 06:30:00 0.1 C 4.63 g/m*3 0.1 C 0 km/h
368 16-11-2019 06:35:00 0 C 4.6 g/m*3 0 C 0 km/h
369 16-11-2019 06:40:00 -0.1 C 4.57 g/m*3 -0.1 C 0 km/h
370 16-11-2019 06:45:00 -0.1 C 4.57 g/m*3 -0.1 C 0 km/h
371 16-11-2019 06:50:00 -0.2 C 4.54 g/m*3 -0.2 C 0 km/h
372 16-11-2019 06:55:00 -0.2 C 4.54 g/m*3 -0.2 C 0 km/h
373 16-11-2019 07:00:00 -0.2 C 4.54 g/m*3 -0.2 C 0 km/h
374 16-11-2019 07:05:00 -0.3 C 4.51 g/m*3 -0.3 C 0 km/h
375 16-11-2019 07:10:00 -0.3 C 4.51 g/m*3 -0.3 C 0 km/h
Sensor: Nr:Datum:Temp:Abs-Feuchte:Windchill:Wind:
Aussen-T/F 376 16-11-2019 07:15:00 -0.4 C 4.48 g/m*3 -0.4 C 0 km/h
377 16-11-2019 07:20:00 -0.4 C 4.48 g/m*3 -0.4 C 0 km/h
378 16-11-2019 07:25:00 -0.4 C 4.48 g/m*3 -0.4 C 0 km/h
379 16-11-2019 07:30:00 -0.4 C 4.48 g/m*3 -0.4 C 0 km/h
380 16-11-2019 07:35:00 -0.4 C 4.48 g/m*3 -0.4 C 0 km/h
381 16-11-2019 07:40:00 -0.3 C 4.56 g/m*3 -0.3 C 0 km/h
382 16-11-2019 07:45:00 -0.3 C 4.56 g/m*3 -0.3 C 0 km/h
383 16-11-2019 07:50:00 -0.2 C 4.59 g/m*3 -0.2 C 1.6 km/h
384 16-11-2019 07:55:00 -0.1 C 4.62 g/m*3 -0.1 C 1.6 km/h
385 16-11-2019 08:00:00 0 C 4.65 g/m*3 0 C 0 km/h
386 16-11-2019 08:05:00 0.1 C 4.68 g/m*3 0.1 C 4.8 km/h
387 16-11-2019 08:10:00 0.2 C 4.72 g/m*3 -1.95 C 6.4 km/h
388 16-11-2019 08:15:00 0.2 C 4.72 g/m*3 0.2 C 0 km/h
389 16-11-2019 08:20:00 0.3 C 4.75 g/m*3 0.3 C 1.6 km/h
390 16-11-2019 08:25:00 0.3 C 4.75 g/m*3 0.3 C 1.6 km/h
391 16-11-2019 08:30:00 0.3 C 4.75 g/m*3 0.3 C 1.6 km/h
392 16-11-2019 08:35:00 0.3 C 4.75 g/m*3 0.3 C 0 km/h
393 16-11-2019 08:40:00 0.3 C 4.75 g/m*3 0.3 C 3.2 km/h
394 16-11-2019 08:45:00 0.3 C 4.75 g/m*3 0.3 C 0 km/h
395 16-11-2019 08:50:00 0.3 C 4.75 g/m*3 0.3 C 3.2 km/h
396 16-11-2019 08:55:00 0.3 C 4.75 g/m*3 0.3 C 3.2 km/h
397 16-11-2019 09:00:00 0.3 C 4.75 g/m*3 0.3 C 1.6 km/h
398 16-11-2019 09:05:00 0.3 C 4.75 g/m*3 0.3 C 3.2 km/h
399 16-11-2019 09:10:00 0.3 C 4.75 g/m*3 0.3 C 4.8 km/h
400 16-11-2019 09:15:00 0.3 C 4.75 g/m*3 0.3 C 4.8 km/h
Sensor: Nr:Datum:Temp:Abs-Feuchte:Windchill:Wind:
Aussen-T/F 401 16-11-2019 09:20:00 0.3 C 4.75 g/m*3 -1.84 C 6.4 km/h
402 16-11-2019 09:25:00 0.3 C 4.75 g/m*3 0.3 C 4.8 km/h
403 16-11-2019 09:30:00 0.3 C 4.75 g/m*3 0.3 C 3.2 km/h
404 16-11-2019 09:35:00 0.3 C 4.75 g/m*3 -1.84 C 6.4 km/h
405 16-11-2019 09:40:00 0.3 C 4.8 g/m*3 0.3 C 4.8 km/h
406 16-11-2019 09:45:00 0.3 C 4.8 g/m*3 0.3 C 4.8 km/h
407 16-11-2019 09:50:00 0.4 C 4.83 g/m*3 0.4 C 4.8 km/h
408 16-11-2019 09:55:00 0.4 C 4.83 g/m*3 0.4 C 4.8 km/h
409 16-11-2019 10:00:00 0.5 C 4.86 g/m*3 0.5 C 4.8 km/h
410 16-11-2019 10:05:00 0.5 C 4.86 g/m*3 0.5 C 4.8 km/h
411 16-11-2019 10:10:00 0.5 C 4.86 g/m*3 0.5 C 1.6 km/h
412 16-11-2019 10:15:00 0.6 C 4.9 g/m*3 0.6 C 1.6 km/h
413 16-11-2019 10:20:00 0.8 C 4.97 g/m*3 0.8 C 3.2 km/h
414 16-11-2019 10:25:00 0.8 C 4.97 g/m*3 0.8 C 1.6 km/h
415 16-11-2019 10:30:00 0.8 C 4.97 g/m*3 0.8 C 3.2 km/h
416 16-11-2019 10:35:00 0.8 C 4.97 g/m*3 0.8 C 3.2 km/h
417 16-11-2019 10:40:00 0.9 C 5 g/m*3 0.9 C 1.6 km/h
418 16-11-2019 10:45:00 0.9 C 5 g/m*3 0.9 C 3.2 km/h
419 16-11-2019 10:50:00 0.9 C 5 g/m*3 0.9 C 3.2 km/h
420 16-11-2019 10:55:00 0.9 C 5 g/m*3 0.9 C 1.6 km/h
421 16-11-2019 11:00:00 1.1 C 5.07 g/m*3 1.1 C 4.8 km/h
422 16-11-2019 11:05:00 1.1 C 5.07 g/m*3 1.1 C 4.8 km/h
423 16-11-2019 11:10:00 1.1 C 5.07 g/m*3 1.1 C 4.8 km/h
424 16-11-2019 11:15:00 1.3 C 5.14 g/m*3 1.3 C 0 km/h
425 16-11-2019 11:20:00 1.3 C 5.14 g/m*3 1.3 C 4.8 km/h
Sensor: Nr:Datum:Temp:Abs-Feuchte:Windchill:Wind:
Aussen-T/F 426 16-11-2019 11:25:00 1.4 C 5.17 g/m*3 1.4 C 1.6 km/h
427 16-11-2019 11:30:00 1.4 C 5.17 g/m*3 1.4 C 3.2 km/h
428 16-11-2019 11:35:00 1.5 C 5.21 g/m*3 1.5 C 3.2 km/h
429 16-11-2019 11:40:00 1.7 C 5.28 g/m*3 1.7 C 1.6 km/h
430 16-11-2019 11:45:00 1.7 C 5.28 g/m*3 1.7 C 1.6 km/h
431 16-11-2019 11:50:00 1.7 C 5.28 g/m*3 1.7 C 0 km/h
432 16-11-2019 11:55:00 1.8 C 5.32 g/m*3 1.8 C 0 km/h
433 16-11-2019 12:00:00 1.8 C 5.32 g/m*3 1.8 C 0 km/h
434 16-11-2019 12:05:00 1.9 C 5.35 g/m*3 1.9 C 0 km/h
435 16-11-2019 12:10:00 1.9 C 5.35 g/m*3 1.9 C 0 km/h
436 16-11-2019 12:15:00 1.9 C 5.35 g/m*3 1.9 C 0 km/h
437 16-11-2019 12:20:00 1.9 C 5.35 g/m*3 1.9 C 0 km/h
438 16-11-2019 12:25:00 2.1 C 5.43 g/m*3 2.1 C 0 km/h
439 16-11-2019 12:30:00 2.2 C 5.46 g/m*3 2.2 C 0 km/h
440 16-11-2019 12:35:00 2.4 C 5.54 g/m*3 2.4 C 0 km/h
441 16-11-2019 12:40:00 2.6 C 5.61 g/m*3 2.6 C 0 km/h
442 16-11-2019 12:45:00 2.7 C 5.65 g/m*3 2.7 C 0 km/h
443 16-11-2019 12:50:00 2.8 C 5.69 g/m*3 2.8 C 0 km/h
444 16-11-2019 12:55:00 2.9 C 5.73 g/m*3 2.9 C 0 km/h
445 16-11-2019 13:00:00 2.9 C 5.73 g/m*3 2.9 C 0 km/h
446 16-11-2019 13:05:00 3 C 5.77 g/m*3 3 C 0 km/h
447 16-11-2019 13:10:00 3.1 C 5.81 g/m*3 3.1 C 0 km/h
448 16-11-2019 13:15:00 3.1 C 5.81 g/m*3 3.1 C 0 km/h
449 16-11-2019 13:20:00 3.1 C 5.81 g/m*3 3.1 C 0 km/h
450 16-11-2019 13:25:00 3.2 C 5.85 g/m*3 3.2 C 0 km/h
Sensor: Nr:Datum:Temp:Abs-Feuchte:Windchill:Wind:
Aussen-T/F 451 16-11-2019 13:30:00 3.3 C 5.88 g/m*3 3.3 C 0 km/h
452 16-11-2019 13:35:00 3.4 C 5.92 g/m*3 3.4 C 0 km/h
453 16-11-2019 13:40:00 3.6 C 6 g/m*3 3.6 C 0 km/h
454 16-11-2019 13:45:00 3.8 C 6.09 g/m*3 3.8 C 0 km/h
455 16-11-2019 13:50:00 3.9 C 6.13 g/m*3 3.9 C 0 km/h
456 16-11-2019 13:55:00 4.1 C 6.21 g/m*3 4.1 C 0 km/h
457 16-11-2019 14:00:00 4.2 C 6.25 g/m*3 4.2 C 0 km/h
458 16-11-2019 14:05:00 4.2 C 6.25 g/m*3 4.2 C 0 km/h
459 16-11-2019 14:10:00 4.2 C 6.25 g/m*3 4.2 C 1.6 km/h
460 16-11-2019 14:15:00 4.2 C 6.25 g/m*3 4.2 C 0 km/h
461 16-11-2019 14:20:00 4.2 C 6.25 g/m*3 4.2 C 0 km/h
462 16-11-2019 14:25:00 4.2 C 6.25 g/m*3 4.2 C 0 km/h
463 16-11-2019 14:30:00 4.2 C 6.25 g/m*3 4.2 C 0 km/h
464 16-11-2019 14:35:00 4.2 C 6.25 g/m*3 4.2 C 0 km/h
465 16-11-2019 14:40:00 4.2 C 6.25 g/m*3 4.2 C 0 km/h
466 16-11-2019 14:45:00 4.2 C 6.25 g/m*3 4.2 C 0 km/h
467 16-11-2019 14:50:00 4.2 C 6.25 g/m*3 4.2 C 0 km/h
468 16-11-2019 14:55:00 4.3 C 6.29 g/m*3 4.3 C 0 km/h
469 16-11-2019 15:00:00 4.3 C 6.29 g/m*3 4.3 C 0 km/h
470 16-11-2019 15:05:00 4.4 C 6.27 g/m*3 4.4 C 0 km/h
471 16-11-2019 15:10:00 4.4 C 6.33 g/m*3 4.4 C 0 km/h
472 16-11-2019 15:15:00 4.6 C 6.35 g/m*3 4.6 C 0 km/h
473 16-11-2019 15:20:00 4.7 C 6.46 g/m*3 4.7 C 0 km/h
474 16-11-2019 15:25:00 4.8 C 6.44 g/m*3 4.8 C 1.6 km/h
475 16-11-2019 15:30:00 4.8 C 6.44 g/m*3 4.8 C 0 km/h
Sensor: Nr:Datum:Temp:Abs-Feuchte:Windchill:Wind:
Aussen-T/F 476 16-11-2019 15:35:00 4.8 C 6.44 g/m*3 4.8 C 1.6 km/h
477 16-11-2019 15:40:00 4.8 C 6.44 g/m*3 4.8 C 0 km/h
478 16-11-2019 15:45:00 4.8 C 6.44 g/m*3 4.8 C 0 km/h
479 16-11-2019 15:50:00 4.8 C 6.37 g/m*3 4.8 C 1.6 km/h
480 16-11-2019 15:55:00 4.8 C 6.37 g/m*3 4.8 C 0 km/h
481 16-11-2019 16:00:00 4.8 C 6.37 g/m*3 4.8 C 0 km/h
482 16-11-2019 16:05:00 4.8 C 6.3 g/m*3 4.8 C 0 km/h
483 16-11-2019 16:10:00 4.8 C 6.3 g/m*3 4.8 C 0 km/h
484 16-11-2019 16:15:00 4.7 C 6.26 g/m*3 4.7 C 0 km/h
485 16-11-2019 16:20:00 4.7 C 6.26 g/m*3 4.7 C 0 km/h
486 16-11-2019 16:25:00 4.6 C 6.15 g/m*3 4.6 C 0 km/h
487 16-11-2019 16:30:00 4.6 C 6.15 g/m*3 4.6 C 0 km/h
488 16-11-2019 16:35:00 4.5 C 6.11 g/m*3 4.5 C 0 km/h
489 16-11-2019 16:40:00 4.4 C 6.07 g/m*3 4.4 C 0 km/h
490 16-11-2019 16:45:00 4.4 C 6.07 g/m*3 4.4 C 1.6 km/h
491 16-11-2019 16:50:00 4.4 C 6.07 g/m*3 4.4 C 1.6 km/h
492 16-11-2019 16:55:00 4.3 C 6.03 g/m*3 4.3 C 0 km/h
493 16-11-2019 17:00:00 4.3 C 6.03 g/m*3 4.3 C 1.6 km/h
494 16-11-2019 17:05:00 4.3 C 6.03 g/m*3 4.3 C 0 km/h
495 16-11-2019 17:10:00 4.3 C 6.1 g/m*3 4.3 C 1.6 km/h
496 16-11-2019 17:15:00 4.2 C 6.06 g/m*3 4.2 C 0 km/h
497 16-11-2019 17:20:00 4.2 C 6.06 g/m*3 4.2 C 0 km/h
498 16-11-2019 17:25:00 4.1 C 5.95 g/m*3 4.1 C 0 km/h
499 16-11-2019 17:30:00 3.9 C 5.87 g/m*3 3.9 C 0 km/h
500 16-11-2019 17:35:00 3.8 C 5.83 g/m*3 3.8 C 0 km/h
Sensor: Nr:Datum:Temp:Abs-Feuchte:Windchill:Wind:
Aussen-T/F 501 16-11-2019 17:40:00 3.7 C 5.8 g/m*3 3.7 C 0 km/h
502 16-11-2019 17:45:00 3.6 C 5.82 g/m*3 3.6 C 0 km/h
503 16-11-2019 17:50:00 3.5 C 5.78 g/m*3 3.5 C 0 km/h
504 16-11-2019 17:55:00 3.4 C 5.74 g/m*3 3.4 C 0 km/h
505 16-11-2019 18:00:00 3.4 C 5.74 g/m*3 3.4 C 0 km/h
506 16-11-2019 18:05:00 3.4 C 5.74 g/m*3 3.4 C 0 km/h
507 16-11-2019 18:10:00 3.4 C 5.74 g/m*3 3.4 C 0 km/h
508 16-11-2019 18:15:00 3.3 C 5.7 g/m*3 3.3 C 0 km/h
509 16-11-2019 18:20:00 3.3 C 5.7 g/m*3 3.3 C 0 km/h
510 16-11-2019 18:25:00 3.2 C 5.72 g/m*3 3.2 C 0 km/h
511 16-11-2019 18:30:00 3.2 C 5.72 g/m*3 3.2 C 0 km/h
512 16-11-2019 18:35:00 3.2 C 5.72 g/m*3 3.2 C 0 km/h
513 16-11-2019 18:40:00 3.1 C 5.69 g/m*3 3.1 C 0 km/h
514 16-11-2019 18:45:00 3.1 C 5.69 g/m*3 3.1 C 1.6 km/h
515 16-11-2019 18:50:00 3 C 5.65 g/m*3 3 C 1.6 km/h
516 16-11-2019 18:55:00 2.9 C 5.61 g/m*3 2.9 C 1.6 km/h
517 16-11-2019 19:00:00 2.9 C 5.61 g/m*3 2.9 C 0 km/h
518 16-11-2019 19:05:00 2.9 C 5.61 g/m*3 2.9 C 0 km/h
519 16-11-2019 19:10:00 2.8 C 5.57 g/m*3 2.8 C 0 km/h
520 16-11-2019 19:15:00 2.8 C 5.57 g/m*3 2.8 C 1.6 km/h
521 16-11-2019 19:20:00 2.7 C 5.54 g/m*3 2.7 C 0 km/h
522 16-11-2019 19:25:00 2.6 C 5.5 g/m*3 2.6 C 0 km/h
523 16-11-2019 19:30:00 2.5 C 5.46 g/m*3 2.5 C 0 km/h
524 16-11-2019 19:35:00 2.4 C 5.42 g/m*3 2.4 C 0 km/h
525 16-11-2019 19:40:00 2.4 C 5.42 g/m*3 2.4 C 0 km/h
Sensor: Nr:Datum:Temp:Abs-Feuchte:Windchill:Wind:
Aussen-T/F 526 16-11-2019 19:45:00 2.3 C 5.39 g/m*3 2.3 C 0 km/h
527 16-11-2019 19:50:00 2.2 C 5.35 g/m*3 2.2 C 0 km/h
528 16-11-2019 19:55:00 2.2 C 5.35 g/m*3 2.2 C 0 km/h
529 16-11-2019 20:00:00 2.1 C 5.31 g/m*3 2.1 C 0 km/h
530 16-11-2019 20:05:00 2.1 C 5.31 g/m*3 2.1 C 0 km/h
531 16-11-2019 20:10:00 2 C 5.28 g/m*3 2 C 0 km/h
532 16-11-2019 20:15:00 1.9 C 5.24 g/m*3 1.9 C 0 km/h
533 16-11-2019 20:20:00 1.9 C 5.24 g/m*3 1.9 C 0 km/h
534 16-11-2019 20:25:00 1.9 C 5.3 g/m*3 1.9 C 0 km/h
535 16-11-2019 20:30:00 1.9 C 5.3 g/m*3 1.9 C 0 km/h
536 16-11-2019 20:35:00 1.9 C 5.3 g/m*3 1.9 C 0 km/h
537 16-11-2019 20:40:00 1.9 C 5.3 g/m*3 1.9 C 0 km/h
538 16-11-2019 20:45:00 1.9 C 5.3 g/m*3 1.9 C 0 km/h
539 16-11-2019 20:50:00 1.9 C 5.3 g/m*3 1.9 C 0 km/h
540 16-11-2019 20:55:00 1.9 C 5.3 g/m*3 1.9 C 0 km/h
541 16-11-2019 21:00:00 1.9 C 5.3 g/m*3 1.9 C 0 km/h
542 16-11-2019 21:05:00 1.9 C 5.3 g/m*3 1.9 C 0 km/h
543 16-11-2019 21:10:00 1.8 C 5.26 g/m*3 1.8 C 0 km/h
544 16-11-2019 21:15:00 1.8 C 5.26 g/m*3 1.8 C 0 km/h
545 16-11-2019 21:20:00 1.8 C 5.26 g/m*3 1.8 C 0 km/h
546 16-11-2019 21:25:00 1.7 C 5.23 g/m*3 1.7 C 0 km/h
547 16-11-2019 21:30:00 1.5 C 5.16 g/m*3 1.5 C 0 km/h
548 16-11-2019 21:35:00 1.4 C 5.07 g/m*3 1.4 C 0 km/h
549 16-11-2019 21:40:00 1.3 C 5.09 g/m*3 1.3 C 0 km/h
550 16-11-2019 21:45:00 1.3 C 5.09 g/m*3 1.3 C 0 km/h
Sensor: Nr:Datum:Temp:Abs-Feuchte:Windchill:Wind:
Aussen-T/F 551 16-11-2019 21:50:00 1.2 C 5.05 g/m*3 1.2 C 0 km/h
552 16-11-2019 21:55:00 1.1 C 5.02 g/m*3 1.1 C 0 km/h
553 16-11-2019 22:00:00 1 C 4.98 g/m*3 1 C 0 km/h
554 16-11-2019 22:05:00 1 C 4.98 g/m*3 1 C 1.6 km/h
555 16-11-2019 22:10:00 1 C 4.98 g/m*3 1 C 0 km/h
556 16-11-2019 22:15:00 0.9 C 4.95 g/m*3 0.9 C 0 km/h
557 16-11-2019 22:20:00 0.9 C 4.95 g/m*3 0.9 C 0 km/h
558 16-11-2019 22:25:00 0.9 C 4.95 g/m*3 0.9 C 0 km/h
559 16-11-2019 22:30:00 0.8 C 4.91 g/m*3 0.8 C 0 km/h
560 16-11-2019 22:35:00 0.8 C 4.91 g/m*3 0.8 C 0 km/h
561 16-11-2019 22:40:00 0.7 C 4.88 g/m*3 0.7 C 0 km/h
562 16-11-2019 22:45:00 0.6 C 4.85 g/m*3 0.6 C 0 km/h
563 16-11-2019 22:50:00 0.5 C 4.81 g/m*3 0.5 C 0 km/h
564 16-11-2019 22:55:00 0.4 C 4.78 g/m*3 0.4 C 0 km/h
565 16-11-2019 23:00:00 0.3 C 4.75 g/m*3 0.3 C 0 km/h
566 16-11-2019 23:05:00 0.3 C 4.75 g/m*3 0.3 C 0 km/h
567 16-11-2019 23:10:00 0.3 C 4.75 g/m*3 0.3 C 0 km/h
568 16-11-2019 23:15:00 0.3 C 4.75 g/m*3 0.3 C 0 km/h
569 16-11-2019 23:20:00 0.3 C 4.75 g/m*3 0.3 C 0 km/h
570 16-11-2019 23:25:00 0.3 C 4.75 g/m*3 0.3 C 0 km/h
571 16-11-2019 23:30:00 0.2 C 4.72 g/m*3 0.2 C 0 km/h
572 16-11-2019 23:35:00 0.1 C 4.68 g/m*3 0.1 C 0 km/h
573 16-11-2019 23:40:00 0 C 4.65 g/m*3 0 C 0 km/h
574 16-11-2019 23:45:00 0 C 4.65 g/m*3 0 C 0 km/h
575 16-11-2019 23:50:00 -0.1 C 4.62 g/m*3 -0.1 C 0 km/h
Sensor: Nr:Datum:Temp:Abs-Feuchte:Windchill:Wind:
Aussen-T/F 576 16-11-2019 23:55:00 -0.1 C 4.62 g/m*3 -0.1 C 0 km/h
577 17-11-2019 00:00:00 -0.1 C 4.62 g/m*3 -0.1 C 0 km/h
578 17-11-2019 00:05:00 -0.1 C 4.62 g/m*3 -0.1 C 0 km/h
579 17-11-2019 00:10:00 -0.2 C 4.59 g/m*3 -0.2 C 0 km/h
580 17-11-2019 00:15:00 -0.1 C 4.62 g/m*3 -0.1 C 0 km/h
581 17-11-2019 00:20:00 -0.1 C 4.62 g/m*3 -0.1 C 0 km/h
582 17-11-2019 00:25:00 -0.2 C 4.59 g/m*3 -0.2 C 0 km/h
583 17-11-2019 00:30:00 -0.3 C 4.56 g/m*3 -0.3 C 0 km/h
584 17-11-2019 00:35:00 -0.4 C 4.52 g/m*3 -0.4 C 0 km/h
585 17-11-2019 00:40:00 -0.4 C 4.52 g/m*3 -0.4 C 0 km/h
586 17-11-2019 00:45:00 -0.5 C 4.49 g/m*3 -0.5 C 0 km/h
587 17-11-2019 00:50:00 -0.6 C 4.46 g/m*3 -0.6 C 0 km/h
588 17-11-2019 00:55:00 -0.6 C 4.46 g/m*3 -0.6 C 0 km/h
589 17-11-2019 01:00:00 -0.7 C 4.43 g/m*3 -0.7 C 0 km/h
590 17-11-2019 01:05:00 -0.7 C 4.43 g/m*3 -0.7 C 0 km/h
591 17-11-2019 01:10:00 -0.8 C 4.4 g/m*3 -0.8 C 0 km/h
592 17-11-2019 01:15:00 -0.7 C 4.43 g/m*3 -0.7 C 0 km/h
593 17-11-2019 01:20:00 -0.7 C 4.43 g/m*3 -0.7 C 0 km/h
594 17-11-2019 01:25:00 -0.6 C 4.46 g/m*3 -0.6 C 0 km/h
595 17-11-2019 01:30:00 -0.7 C 4.43 g/m*3 -0.7 C 0 km/h
596 17-11-2019 01:35:00 -0.7 C 4.43 g/m*3 -0.7 C 0 km/h
597 17-11-2019 01:40:00 -0.7 C 4.43 g/m*3 -0.7 C 0 km/h
598 17-11-2019 01:45:00 -0.7 C 4.43 g/m*3 -0.7 C 0 km/h
599 17-11-2019 01:50:00 -0.7 C 4.43 g/m*3 -0.7 C 0 km/h
600 17-11-2019 01:55:00 -0.6 C 4.51 g/m*3 -0.6 C 0 km/h
Sensor: Nr:Datum:Temp:Abs-Feuchte:Windchill:Wind:
Aussen-T/F 601 17-11-2019 02:00:00 -0.6 C 4.46 g/m*3 -0.6 C 0 km/h
602 17-11-2019 02:05:00 -0.5 C 4.49 g/m*3 -0.5 C 0 km/h
603 17-11-2019 02:10:00 -0.4 C 4.57 g/m*3 -0.4 C 0 km/h
604 17-11-2019 02:15:00 -0.3 C 4.6 g/m*3 -0.3 C 0 km/h
605 17-11-2019 02:20:00 -0.3 C 4.6 g/m*3 -0.3 C 0 km/h
606 17-11-2019 02:25:00 -0.2 C 4.64 g/m*3 -0.2 C 0 km/h
607 17-11-2019 02:30:00 -0.1 C 4.67 g/m*3 -0.1 C 0 km/h
608 17-11-2019 02:35:00 0 C 4.7 g/m*3 0 C 0 km/h
609 17-11-2019 02:40:00 0.1 C 4.73 g/m*3 0.1 C 0 km/h
610 17-11-2019 02:45:00 0.2 C 4.77 g/m*3 0.2 C 0 km/h
611 17-11-2019 02:50:00 0.3 C 4.8 g/m*3 0.3 C 0 km/h
612 17-11-2019 02:55:00 0.4 C 4.83 g/m*3 0.4 C 0 km/h
613 17-11-2019 03:00:00 0.4 C 4.83 g/m*3 0.4 C 0 km/h
614 17-11-2019 03:05:00 0.6 C 4.9 g/m*3 0.6 C 0 km/h
615 17-11-2019 03:10:00 0.7 C 4.93 g/m*3 0.7 C 0 km/h
616 17-11-2019 03:15:00 0.7 C 4.93 g/m*3 0.7 C 0 km/h
617 17-11-2019 03:20:00 0.7 C 4.93 g/m*3 0.7 C 0 km/h
618 17-11-2019 03:25:00 0.7 C 4.93 g/m*3 0.7 C 0 km/h
619 17-11-2019 03:30:00 0.8 C 4.97 g/m*3 0.8 C 0 km/h
620 17-11-2019 03:35:00 0.8 C 4.97 g/m*3 0.8 C 0 km/h
621 17-11-2019 03:40:00 0.9 C 5 g/m*3 0.9 C 0 km/h
622 17-11-2019 03:45:00 1 C 5.03 g/m*3 1 C 0 km/h
623 17-11-2019 03:50:00 1.1 C 5.07 g/m*3 1.1 C 0 km/h
624 17-11-2019 03:55:00 1.2 C 5.1 g/m*3 1.2 C 0 km/h
625 17-11-2019 04:00:00 1.2 C 5.1 g/m*3 1.2 C 0 km/h
Sensor: Nr:Datum:Temp:Abs-Feuchte:Windchill:Wind:
Aussen-T/F 626 17-11-2019 04:05:00 1.3 C 5.14 g/m*3 1.3 C 0 km/h
627 17-11-2019 04:10:00 1.3 C 5.14 g/m*3 1.3 C 0 km/h
628 17-11-2019 04:15:00 1.4 C 5.17 g/m*3 1.4 C 0 km/h
629 17-11-2019 04:20:00 1.4 C 5.17 g/m*3 1.4 C 0 km/h
630 17-11-2019 04:25:00 1.5 C 5.21 g/m*3 1.5 C 0 km/h
631 17-11-2019 04:30:00 1.6 C 5.25 g/m*3 1.6 C 0 km/h
632 17-11-2019 04:35:00 1.6 C 5.25 g/m*3 1.6 C 0 km/h
633 17-11-2019 04:40:00 1.6 C 5.25 g/m*3 1.6 C 0 km/h
634 17-11-2019 04:45:00 1.6 C 5.25 g/m*3 1.6 C 0 km/h
635 17-11-2019 04:50:00 1.6 C 5.25 g/m*3 1.6 C 0 km/h
636 17-11-2019 04:55:00 1.6 C 5.25 g/m*3 1.6 C 0 km/h
637 17-11-2019 05:00:00 1.6 C 5.25 g/m*3 1.6 C 0 km/h
638 17-11-2019 05:05:00 1.6 C 5.25 g/m*3 1.6 C 0 km/h
639 17-11-2019 05:10:00 1.6 C 5.25 g/m*3 1.6 C 0 km/h
640 17-11-2019 05:15:00 1.6 C 5.25 g/m*3 1.6 C 0 km/h
641 17-11-2019 05:20:00 1.6 C 5.25 g/m*3 1.6 C 0 km/h
642 17-11-2019 05:25:00 1.7 C 5.28 g/m*3 1.7 C 0 km/h
643 17-11-2019 05:30:00 1.7 C 5.28 g/m*3 1.7 C 0 km/h
644 17-11-2019 05:35:00 1.7 C 5.28 g/m*3 1.7 C 0 km/h
645 17-11-2019 05:40:00 1.7 C 5.28 g/m*3 1.7 C 0 km/h
646 17-11-2019 05:45:00 1.7 C 5.28 g/m*3 1.7 C 0 km/h
647 17-11-2019 05:50:00 1.7 C 5.28 g/m*3 1.7 C 0 km/h
648 17-11-2019 05:55:00 1.7 C 5.28 g/m*3 1.7 C 0 km/h
649 17-11-2019 06:00:00 1.7 C 5.28 g/m*3 1.7 C 0 km/h
650 17-11-2019 06:05:00 1.7 C 5.28 g/m*3 1.7 C 0 km/h
Sensor: Nr:Datum:Temp:Abs-Feuchte:Windchill:Wind:
Aussen-T/F 651 17-11-2019 06:10:00 1.7 C 5.28 g/m*3 1.7 C 0 km/h
652 17-11-2019 06:15:00 1.7 C 5.28 g/m*3 1.7 C 0 km/h
653 17-11-2019 06:20:00 1.7 C 5.28 g/m*3 1.7 C 0 km/h
654 17-11-2019 06:25:00 1.7 C 5.28 g/m*3 1.7 C 0 km/h
655 17-11-2019 06:30:00 1.7 C 5.28 g/m*3 1.7 C 0 km/h
656 17-11-2019 06:35:00 1.7 C 5.28 g/m*3 1.7 C 0 km/h
657 17-11-2019 06:40:00 1.7 C 5.28 g/m*3 1.7 C 0 km/h
658 17-11-2019 06:45:00 1.7 C 5.28 g/m*3 1.7 C 0 km/h
659 17-11-2019 06:50:00 1.7 C 5.28 g/m*3 1.7 C 0 km/h
660 17-11-2019 06:55:00 1.7 C 5.28 g/m*3 1.7 C 0 km/h
661 17-11-2019 07:00:00 1.8 C 5.32 g/m*3 1.8 C 0 km/h
662 17-11-2019 07:05:00 1.8 C 5.32 g/m*3 1.8 C 0 km/h
663 17-11-2019 07:10:00 1.8 C 5.32 g/m*3 1.8 C 0 km/h
664 17-11-2019 07:15:00 1.8 C 5.32 g/m*3 1.8 C 0 km/h
665 17-11-2019 07:20:00 1.8 C 5.32 g/m*3 1.8 C 0 km/h
666 17-11-2019 07:25:00 1.8 C 5.32 g/m*3 1.8 C 0 km/h
667 17-11-2019 07:30:00 1.8 C 5.32 g/m*3 1.8 C 0 km/h
668 17-11-2019 07:35:00 1.8 C 5.32 g/m*3 1.8 C 0 km/h
669 17-11-2019 07:40:00 1.8 C 5.32 g/m*3 1.8 C 0 km/h
670 17-11-2019 07:45:00 1.9 C 5.35 g/m*3 1.9 C 0 km/h
671 17-11-2019 07:50:00 1.9 C 5.35 g/m*3 1.9 C 0 km/h
672 17-11-2019 07:55:00 1.9 C 5.35 g/m*3 1.9 C 0 km/h
673 17-11-2019 08:00:00 1.9 C 5.35 g/m*3 1.9 C 0 km/h
674 17-11-2019 08:05:00 1.9 C 5.35 g/m*3 1.9 C 0 km/h
675 17-11-2019 08:10:00 1.9 C 5.35 g/m*3 1.9 C 0 km/h
Sensor: Nr:Datum:Temp:Abs-Feuchte:Windchill:Wind:
Aussen-T/F 676 17-11-2019 08:15:00 1.9 C 5.35 g/m*3 1.9 C 0 km/h
677 17-11-2019 08:20:00 1.9 C 5.35 g/m*3 1.9 C 0 km/h
678 17-11-2019 08:25:00 1.9 C 5.35 g/m*3 1.9 C 0 km/h
679 17-11-2019 08:30:00 1.9 C 5.35 g/m*3 1.9 C 0 km/h
680 17-11-2019 08:35:00 2 C 5.39 g/m*3 2 C 0 km/h
681 17-11-2019 08:40:00 2 C 5.39 g/m*3 2 C 0 km/h
682 17-11-2019 08:45:00 2.1 C 5.43 g/m*3 2.1 C 0 km/h
683 17-11-2019 08:50:00 2.1 C 5.43 g/m*3 2.1 C 0 km/h
684 17-11-2019 08:55:00 2.1 C 5.43 g/m*3 2.1 C 0 km/h
685 17-11-2019 09:00:00 2.2 C 5.46 g/m*3 2.2 C 0 km/h
686 17-11-2019 09:05:00 2.2 C 5.46 g/m*3 2.2 C 0 km/h
687 17-11-2019 09:10:00 2.2 C 5.46 g/m*3 2.2 C 0 km/h
688 17-11-2019 09:15:00 2.3 C 5.5 g/m*3 2.3 C 0 km/h
689 17-11-2019 09:20:00 2.3 C 5.5 g/m*3 2.3 C 0 km/h
690 17-11-2019 09:25:00 2.4 C 5.54 g/m*3 2.4 C 0 km/h
691 17-11-2019 09:30:00 2.5 C 5.63 g/m*3 2.5 C 0 km/h
692 17-11-2019 09:35:00 2.6 C 5.67 g/m*3 2.6 C 0 km/h
693 17-11-2019 09:40:00 2.6 C 5.61 g/m*3 2.6 C 0 km/h
694 17-11-2019 09:45:00 2.7 C 5.65 g/m*3 2.7 C 0 km/h
695 17-11-2019 09:50:00 2.8 C 5.69 g/m*3 2.8 C 0 km/h
696 17-11-2019 09:55:00 2.9 C 5.79 g/m*3 2.9 C 0 km/h
697 17-11-2019 10:00:00 2.9 C 5.79 g/m*3 2.9 C 0 km/h
698 17-11-2019 10:05:00 2.9 C 5.79 g/m*3 2.9 C 0 km/h
699 17-11-2019 10:10:00 3 C 5.83 g/m*3 3 C 0 km/h
700 17-11-2019 10:15:00 3.1 C 5.87 g/m*3 3.1 C 0 km/h
Sensor: Nr:Datum:Temp:Abs-Feuchte:Windchill:Wind:
Aussen-T/F 701 17-11-2019 10:20:00 3.1 C 5.87 g/m*3 3.1 C 0 km/h
702 17-11-2019 10:25:00 3.1 C 5.87 g/m*3 3.1 C 0 km/h
703 17-11-2019 10:30:00 3.2 C 5.91 g/m*3 3.2 C 3.2 km/h
704 17-11-2019 10:35:00 3.2 C 5.91 g/m*3 3.2 C 0 km/h
705 17-11-2019 10:40:00 3.3 C 5.95 g/m*3 3.3 C 0 km/h
706 17-11-2019 10:45:00 3.3 C 5.95 g/m*3 3.3 C 0 km/h
707 17-11-2019 10:50:00 3.3 C 5.95 g/m*3 3.3 C 0 km/h
708 17-11-2019 10:55:00 3.4 C 5.99 g/m*3 3.4 C 0 km/h
709 17-11-2019 11:00:00 3.4 C 5.99 g/m*3 3.4 C 0 km/h
710 17-11-2019 11:05:00 3.6 C 6.07 g/m*3 3.6 C 0 km/h
711 17-11-2019 11:10:00 3.8 C 6.15 g/m*3 3.8 C 0 km/h
712 17-11-2019 11:15:00 3.9 C 6.19 g/m*3 3.9 C 0 km/h
713 17-11-2019 11:20:00 3.9 C 6.19 g/m*3 3.9 C 0 km/h
714 17-11-2019 11:25:00 4 C 6.23 g/m*3 4 C 0 km/h
715 17-11-2019 11:30:00 4 C 6.23 g/m*3 4 C 0 km/h
716 17-11-2019 11:35:00 4 C 6.23 g/m*3 4 C 0 km/h
717 17-11-2019 11:40:00 4.1 C 6.27 g/m*3 4.1 C 0 km/h
718 17-11-2019 11:45:00 4.1 C 6.27 g/m*3 4.1 C 0 km/h
719 17-11-2019 11:50:00 4.1 C 6.27 g/m*3 4.1 C 1.6 km/h
720 17-11-2019 11:55:00 4.1 C 6.27 g/m*3 4.1 C 0 km/h
721 17-11-2019 12:00:00 4.2 C 6.31 g/m*3 4.2 C 0 km/h
722 17-11-2019 12:05:00 4.2 C 6.31 g/m*3 4.2 C 0 km/h
723 17-11-2019 12:10:00 4.2 C 6.31 g/m*3 4.2 C 0 km/h
724 17-11-2019 12:15:00 4.3 C 6.36 g/m*3 4.3 C 0 km/h
725 17-11-2019 12:20:00 4.3 C 6.36 g/m*3 4.3 C 0 km/h
Sensor: Nr:Datum:Temp:Abs-Feuchte:Windchill:Wind:
Aussen-T/F 726 17-11-2019 12:25:00 4.3 C 6.36 g/m*3 4.3 C 0 km/h
727 17-11-2019 12:30:00 4.3 C 6.36 g/m*3 4.3 C 0 km/h
728 17-11-2019 12:35:00 4.4 C 6.4 g/m*3 4.4 C 0 km/h
729 17-11-2019 12:40:00 4.4 C 6.4 g/m*3 4.4 C 0 km/h
730 17-11-2019 12:45:00 4.4 C 6.4 g/m*3 4.4 C 0 km/h
731 17-11-2019 12:50:00 4.4 C 6.4 g/m*3 4.4 C 0 km/h
732 17-11-2019 12:55:00 4.4 C 6.4 g/m*3 4.4 C 0 km/h
733 17-11-2019 13:00:00 4.6 C 6.48 g/m*3 4.6 C 0 km/h
734 17-11-2019 13:05:00 4.7 C 6.53 g/m*3 4.7 C 0 km/h
735 17-11-2019 13:10:00 4.8 C 6.57 g/m*3 4.8 C 0 km/h
736 17-11-2019 13:15:00 4.9 C 6.62 g/m*3 4.9 C 0 km/h
737 17-11-2019 13:20:00 4.9 C 6.62 g/m*3 4.9 C 0 km/h
738 17-11-2019 13:25:00 4.9 C 6.62 g/m*3 4.9 C 0 km/h
739 17-11-2019 13:30:00 4.9 C 6.62 g/m*3 4.9 C 0 km/h
740 17-11-2019 13:35:00 4.9 C 6.62 g/m*3 4.9 C 0 km/h
741 17-11-2019 13:40:00 5 C 6.66 g/m*3 5 C 0 km/h
742 17-11-2019 13:45:00 5.1 C 6.7 g/m*3 5.1 C 0 km/h
743 17-11-2019 13:50:00 5.1 C 6.7 g/m*3 5.1 C 0 km/h
744 17-11-2019 13:55:00 5.1 C 6.7 g/m*3 5.1 C 0 km/h
745 17-11-2019 14:00:00 5.2 C 6.75 g/m*3 5.2 C 0 km/h
746 17-11-2019 14:05:00 5.2 C 6.75 g/m*3 5.2 C 0 km/h
747 17-11-2019 14:10:00 5.2 C 6.75 g/m*3 5.2 C 0 km/h
748 17-11-2019 14:15:00 5.2 C 6.75 g/m*3 5.2 C 0 km/h
749 17-11-2019 14:20:00 5.2 C 6.75 g/m*3 5.2 C 0 km/h
750 17-11-2019 14:25:00 5.2 C 6.75 g/m*3 5.2 C 0 km/h
Sensor: Nr:Datum:Temp:Abs-Feuchte:Windchill:Wind:
Aussen-T/F 751 17-11-2019 14:30:00 5.2 C 6.75 g/m*3 5.2 C 0 km/h
752 17-11-2019 14:35:00 5.1 C 6.7 g/m*3 5.1 C 0 km/h
753 17-11-2019 14:40:00 5 C 6.66 g/m*3 3.59 C 6.4 km/h
754 17-11-2019 14:45:00 4.9 C 6.55 g/m*3 4.9 C 3.2 km/h
755 17-11-2019 14:50:00 4.9 C 6.55 g/m*3 4.9 C 0 km/h
756 17-11-2019 14:55:00 4.9 C 6.55 g/m*3 4.9 C 1.6 km/h
757 17-11-2019 15:00:00 4.9 C 6.55 g/m*3 4.9 C 0 km/h
758 17-11-2019 15:05:00 4.9 C 6.55 g/m*3 4.9 C 0 km/h
759 17-11-2019 15:10:00 5 C 6.59 g/m*3 5 C 1.6 km/h
760 17-11-2019 15:15:00 5 C 6.59 g/m*3 5 C 4.8 km/h
761 17-11-2019 15:20:00 5 C 6.59 g/m*3 5 C 0 km/h
762 17-11-2019 15:25:00 4.9 C 6.55 g/m*3 4.9 C 3.2 km/h
763 17-11-2019 15:30:00 4.9 C 6.55 g/m*3 4.9 C 1.6 km/h
764 17-11-2019 15:35:00 4.8 C 6.5 g/m*3 4.8 C 0 km/h
765 17-11-2019 15:40:00 4.8 C 6.5 g/m*3 4.8 C 0 km/h
766 17-11-2019 15:45:00 4.8 C 6.5 g/m*3 4.8 C 1.6 km/h
767 17-11-2019 15:50:00 4.8 C 6.5 g/m*3 4.8 C 3.2 km/h
768 17-11-2019 15:55:00 4.8 C 6.5 g/m*3 4.8 C 0 km/h
769 17-11-2019 16:00:00 4.7 C 6.46 g/m*3 4.7 C 0 km/h
770 17-11-2019 16:05:00 4.7 C 6.46 g/m*3 4.7 C 3.2 km/h
771 17-11-2019 16:10:00 4.8 C 6.5 g/m*3 4.8 C 0 km/h
772 17-11-2019 16:15:00 4.7 C 6.46 g/m*3 4.7 C 0 km/h
773 17-11-2019 16:20:00 4.7 C 6.46 g/m*3 4.7 C 0 km/h
774 17-11-2019 16:25:00 4.7 C 6.46 g/m*3 4.7 C 0 km/h
775 17-11-2019 16:30:00 4.7 C 6.46 g/m*3 4.7 C 4.8 km/h
Sensor: Nr:Datum:Temp:Abs-Feuchte:Windchill:Wind:
Aussen-T/F 776 17-11-2019 16:35:00 4.6 C 6.42 g/m*3 4.6 C 4.8 km/h
777 17-11-2019 16:40:00 4.6 C 6.42 g/m*3 4.6 C 4.8 km/h
778 17-11-2019 16:45:00 4.6 C 6.42 g/m*3 4.6 C 4.8 km/h
779 17-11-2019 16:50:00 4.5 C 6.38 g/m*3 4.5 C 4.8 km/h
780 17-11-2019 16:55:00 4.5 C 6.38 g/m*3 4.5 C 4.8 km/h
781 17-11-2019 17:00:00 4.5 C 6.38 g/m*3 4.5 C 0 km/h
782 17-11-2019 17:05:00 4.5 C 6.38 g/m*3 4.5 C 1.6 km/h
783 17-11-2019 17:10:00 4.5 C 6.38 g/m*3 4.5 C 4.8 km/h
784 17-11-2019 17:15:00 4.5 C 6.38 g/m*3 4.5 C 3.2 km/h
785 17-11-2019 17:20:00 4.4 C 6.33 g/m*3 4.4 C 3.2 km/h
786 17-11-2019 17:25:00 4.4 C 6.33 g/m*3 2.9 C 6.4 km/h
787 17-11-2019 17:30:00 4.4 C 6.33 g/m*3 4.4 C 0 km/h
788 17-11-2019 17:35:00 4.4 C 6.33 g/m*3 4.4 C 0 km/h
789 17-11-2019 17:40:00 4.4 C 6.33 g/m*3 4.4 C 0 km/h
790 17-11-2019 17:45:00 4.4 C 6.33 g/m*3 4.4 C 0 km/h
791 17-11-2019 17:50:00 4.4 C 6.33 g/m*3 4.4 C 1.6 km/h
792 17-11-2019 17:55:00 4.4 C 6.33 g/m*3 4.4 C 4.8 km/h
793 17-11-2019 18:00:00 4.5 C 6.38 g/m*3 4.5 C 0 km/h
794 17-11-2019 18:05:00 4.5 C 6.38 g/m*3 4.5 C 0 km/h
795 17-11-2019 18:10:00 4.6 C 6.42 g/m*3 4.6 C 0 km/h
796 17-11-2019 18:15:00 4.6 C 6.42 g/m*3 4.6 C 0 km/h
797 17-11-2019 18:20:00 4.6 C 6.42 g/m*3 4.6 C 0 km/h
798 17-11-2019 18:25:00 4.6 C 6.42 g/m*3 4.6 C 1.6 km/h
799 17-11-2019 18:30:00 4.7 C 6.46 g/m*3 4.7 C 3.2 km/h
800 17-11-2019 18:35:00 4.7 C 6.46 g/m*3 4.7 C 1.6 km/h
Sensor: Nr:Datum:Temp:Abs-Feuchte:Windchill:Wind:
Aussen-T/F 801 17-11-2019 18:40:00 4.7 C 6.46 g/m*3 4.7 C 1.6 km/h
802 17-11-2019 18:45:00 4.7 C 6.46 g/m*3 4.7 C 3.2 km/h
803 17-11-2019 18:50:00 4.7 C 6.46 g/m*3 4.7 C 1.6 km/h
804 17-11-2019 18:55:00 4.7 C 6.46 g/m*3 3.25 C 6.4 km/h
805 17-11-2019 19:00:00 4.7 C 6.46 g/m*3 2.03 C 11.3 km/h
806 17-11-2019 19:05:00 4.7 C 6.46 g/m*3 2.76 C 8.1 km/h
807 17-11-2019 19:10:00 4.7 C 6.46 g/m*3 1.73 C 12.9 km/h
808 17-11-2019 19:15:00 4.7 C 6.46 g/m*3 1.46 C 14.5 km/h
809 17-11-2019 19:20:00 4.7 C 6.46 g/m*3 4.7 C 3.2 km/h
810 17-11-2019 19:25:00 4.7 C 6.46 g/m*3 4.7 C 4.8 km/h
811 17-11-2019 19:30:00 4.7 C 6.46 g/m*3 2.37 C 9.7 km/h
812 17-11-2019 19:35:00 4.7 C 6.46 g/m*3 4.7 C 1.6 km/h
813 17-11-2019 19:40:00 4.7 C 6.46 g/m*3 4.7 C 4.8 km/h
814 17-11-2019 19:45:00 4.7 C 6.46 g/m*3 4.7 C 3.2 km/h
815 17-11-2019 19:50:00 4.7 C 6.46 g/m*3 4.7 C 3.2 km/h
816 17-11-2019 19:55:00 4.7 C 6.46 g/m*3 4.7 C 3.2 km/h
817 17-11-2019 20:00:00 4.7 C 6.46 g/m*3 3.25 C 6.4 km/h
818 17-11-2019 20:05:00 4.7 C 6.46 g/m*3 4.7 C 4.8 km/h
819 17-11-2019 20:10:00 4.7 C 6.46 g/m*3 4.7 C 1.6 km/h
820 17-11-2019 20:15:00 4.7 C 6.46 g/m*3 4.7 C 4.8 km/h
821 17-11-2019 20:20:00 4.7 C 6.46 g/m*3 2.76 C 8.1 km/h
822 17-11-2019 20:25:00 4.7 C 6.46 g/m*3 4.7 C 1.6 km/h
823 17-11-2019 20:30:00 4.7 C 6.46 g/m*3 4.7 C 3.2 km/h
824 17-11-2019 20:35:00 4.7 C 6.46 g/m*3 4.7 C 1.6 km/h
825 17-11-2019 20:40:00 4.7 C 6.46 g/m*3 4.7 C 3.2 km/h
Sensor: Nr:Datum:Temp:Abs-Feuchte:Windchill:Wind:
Aussen-T/F 826 17-11-2019 20:45:00 4.8 C 6.5 g/m*3 4.8 C 4.8 km/h
827 17-11-2019 20:50:00 4.7 C 6.46 g/m*3 4.7 C 3.2 km/h
828 17-11-2019 20:55:00 4.8 C 6.5 g/m*3 4.8 C 1.6 km/h
829 17-11-2019 21:00:00 4.7 C 6.46 g/m*3 4.7 C 1.6 km/h
830 17-11-2019 21:05:00 4.7 C 6.46 g/m*3 2.03 C 11.3 km/h
831 17-11-2019 21:10:00 4.7 C 6.46 g/m*3 4.7 C 3.2 km/h
832 17-11-2019 21:15:00 4.7 C 6.46 g/m*3 3.25 C 6.4 km/h
833 17-11-2019 21:20:00 4.7 C 6.46 g/m*3 4.7 C 1.6 km/h
834 17-11-2019 21:25:00 4.7 C 6.46 g/m*3 2.03 C 11.3 km/h
835 17-11-2019 21:30:00 4.7 C 6.46 g/m*3 4.7 C 4.8 km/h
836 17-11-2019 21:35:00 4.7 C 6.46 g/m*3 4.7 C 4.8 km/h
837 17-11-2019 21:40:00 4.7 C 6.46 g/m*3 4.7 C 4.8 km/h
838 17-11-2019 21:45:00 4.7 C 6.46 g/m*3 4.7 C 3.2 km/h
839 17-11-2019 21:50:00 4.7 C 6.46 g/m*3 2.37 C 9.7 km/h
840 17-11-2019 21:55:00 4.7 C 6.46 g/m*3 4.7 C 4.8 km/h
841 17-11-2019 22:00:00 4.7 C 6.46 g/m*3 4.7 C 0 km/h
842 17-11-2019 22:05:00 4.7 C 6.46 g/m*3 4.7 C 3.2 km/h
843 17-11-2019 22:10:00 4.7 C 6.46 g/m*3 4.7 C 0 km/h
844 17-11-2019 22:15:00 4.7 C 6.46 g/m*3 4.7 C 1.6 km/h
845 17-11-2019 22:20:00 4.7 C 6.46 g/m*3 4.7 C 3.2 km/h
846 17-11-2019 22:25:00 4.7 C 6.46 g/m*3 4.7 C 1.6 km/h
847 17-11-2019 22:30:00 4.7 C 6.46 g/m*3 4.7 C 0 km/h
848 17-11-2019 22:35:00 4.7 C 6.46 g/m*3 4.7 C 1.6 km/h
849 17-11-2019 22:40:00 4.7 C 6.46 g/m*3 4.7 C 1.6 km/h
850 17-11-2019 22:45:00 4.7 C 6.46 g/m*3 4.7 C 0 km/h
Sensor: Nr:Datum:Temp:Abs-Feuchte:Windchill:Wind:
Aussen-T/F 851 17-11-2019 22:50:00 4.7 C 6.46 g/m*3 4.7 C 0 km/h
852 17-11-2019 22:55:00 4.7 C 6.46 g/m*3 4.7 C 1.6 km/h
853 17-11-2019 23:00:00 4.7 C 6.46 g/m*3 4.7 C 3.2 km/h
854 17-11-2019 23:05:00 4.7 C 6.46 g/m*3 4.7 C 1.6 km/h
855 17-11-2019 23:10:00 4.7 C 6.46 g/m*3 4.7 C 3.2 km/h
856 17-11-2019 23:15:00 4.6 C 6.42 g/m*3 4.6 C 1.6 km/h
857 17-11-2019 23:20:00 4.6 C 6.42 g/m*3 4.6 C 1.6 km/h
858 17-11-2019 23:25:00 4.7 C 6.46 g/m*3 4.7 C 1.6 km/h
859 17-11-2019 23:30:00 4.6 C 6.42 g/m*3 4.6 C 0 km/h
860 17-11-2019 23:35:00 4.6 C 6.42 g/m*3 4.6 C 0 km/h
861 17-11-2019 23:40:00 4.6 C 6.42 g/m*3 4.6 C 1.6 km/h
862 17-11-2019 23:45:00 4.6 C 6.42 g/m*3 2.64 C 8.1 km/h
863 17-11-2019 23:50:00 4.6 C 6.42 g/m*3 2.64 C 8.1 km/h
864 17-11-2019 23:55:00 4.5 C 6.38 g/m*3 4.5 C 4.8 km/h

Legende:
   Min
   Max


Maximal/Minimal-Werte vom 15.11.2019 - 17.11.2019

Sensor Min Max Avg
Temp
(Aussen-T/F)
-0.8 °C
17-11-2019  01:10:00
7.9 °C
15-11-2019  15:00:00
3.3 °C
Abs-Feuchte
(Aussen-T/F)
4.4 g/m*3
17-11-2019  01:10:00
6.75 g/m*3
17-11-2019  14:00:00
5.69 g/m*3
Windchill
(Aussen-T/F)
-1.95 C
16-11-2019  08:10:00
7.9 C
15-11-2019  15:00:00
3.2 C

Die Daten stammen von einer Davis Vantage Pro 2 Wetter-Station und werden unter Linux mit der Software wview2wettercgi und aufbereitet. Alle Angaben erfolgen ohne Gewähr für ihre Vollständigkeit oder Richtigkeit.
Kontakt: Rainer Krienke krienke@uni-koblenz.de . Meine Webseiten an der Uni Koblenz oder privat.
Version: $Revision: 0.78 $